sensor_id;sensor_type;location;lat;lon;timestamp;P1;durP1;ratioP1;P2;durP2;ratioP2
4359;SDS011;2193;47.980;7.660;2023-03-21T00:02:08;14.53;;;8.33;;
4359;SDS011;2193;47.980;7.660;2023-03-21T00:04:34;9.13;;;6.73;;
4359;SDS011;2193;47.980;7.660;2023-03-21T00:07:00;9.10;;;6.60;;
4359;SDS011;2193;47.980;7.660;2023-03-21T00:09:25;10.20;;;7.27;;
4359;SDS011;2193;47.980;7.660;2023-03-21T00:11:51;9.87;;;6.60;;
4359;SDS011;2193;47.980;7.660;2023-03-21T00:14:16;9.40;;;6.77;;
4359;SDS011;2193;47.980;7.660;2023-03-21T00:16:42;8.95;;;6.38;;
4359;SDS011;2193;47.980;7.660;2023-03-21T00:19:09;8.45;;;6.38;;
4359;SDS011;2193;47.980;7.660;2023-03-21T00:21:36;9.05;;;5.97;;
4359;SDS011;2193;47.980;7.660;2023-03-21T00:24:02;6.72;;;5.40;;
4359;SDS011;2193;47.980;7.660;2023-03-21T00:26:27;8.20;;;6.00;;
4359;SDS011;2193;47.980;7.660;2023-03-21T00:28:53;8.47;;;5.87;;
4359;SDS011;2193;47.980;7.660;2023-03-21T00:31:18;7.87;;;5.80;;
4359;SDS011;2193;47.980;7.660;2023-03-21T00:33:43;6.50;;;5.13;;
4359;SDS011;2193;47.980;7.660;2023-03-21T00:36:09;7.77;;;5.90;;
4359;SDS011;2193;47.980;7.660;2023-03-21T00:38:35;5.95;;;5.35;;
4359;SDS011;2193;47.980;7.660;2023-03-21T00:41:04;11.43;;;6.33;;
4359;SDS011;2193;47.980;7.660;2023-03-21T00:43:30;10.10;;;6.47;;
4359;SDS011;2193;47.980;7.660;2023-03-21T00:45:57;9.57;;;6.55;;
4359;SDS011;2193;47.980;7.660;2023-03-21T00:48:22;8.23;;;6.33;;
4359;SDS011;2193;47.980;7.660;2023-03-21T00:50:49;8.50;;;6.50;;
4359;SDS011;2193;47.980;7.660;2023-03-21T00:53:16;9.70;;;5.78;;
4359;SDS011;2193;47.980;7.660;2023-03-21T00:55:41;7.27;;;5.73;;
4359;SDS011;2193;47.980;7.660;2023-03-21T00:58:06;8.37;;;6.30;;
4359;SDS011;2193;47.980;7.660;2023-03-21T01:00:32;9.47;;;6.20;;
4359;SDS011;2193;47.980;7.660;2023-03-21T01:02:57;6.83;;;4.97;;
4359;SDS011;2193;47.980;7.660;2023-03-21T01:05:29;8.07;;;6.30;;
4359;SDS011;2193;47.980;7.660;2023-03-21T01:08:14;9.13;;;6.28;;
4359;SDS011;2193;47.980;7.660;2023-03-21T01:10:41;13.23;;;6.60;;
4359;SDS011;2193;47.980;7.660;2023-03-21T01:13:07;9.93;;;6.05;;
4359;SDS011;2193;47.980;7.660;2023-03-21T01:15:33;9.37;;;6.60;;
4359;SDS011;2193;47.980;7.660;2023-03-21T01:17:58;10.47;;;6.80;;
4359;SDS011;2193;47.980;7.660;2023-03-21T01:20:23;9.23;;;6.33;;
4359;SDS011;2193;47.980;7.660;2023-03-21T01:22:49;8.33;;;6.20;;
4359;SDS011;2193;47.980;7.660;2023-03-21T01:25:15;10.50;;;7.23;;
4359;SDS011;2193;47.980;7.660;2023-03-21T01:27:40;8.50;;;5.97;;
4359;SDS011;2193;47.980;7.660;2023-03-21T01:30:05;8.47;;;5.60;;
4359;SDS011;2193;47.980;7.660;2023-03-21T01:32:31;6.90;;;5.17;;
4359;SDS011;2193;47.980;7.660;2023-03-21T01:34:56;9.03;;;5.70;;
4359;SDS011;2193;47.980;7.660;2023-03-21T01:37:21;9.87;;;6.10;;
4359;SDS011;2193;47.980;7.660;2023-03-21T01:39:47;7.53;;;6.30;;
4359;SDS011;2193;47.980;7.660;2023-03-21T01:42:12;9.63;;;6.00;;
4359;SDS011;2193;47.980;7.660;2023-03-21T01:44:51;8.57;;;5.30;;
4359;SDS011;2193;47.980;7.660;2023-03-21T01:47:16;8.05;;;5.55;;
4359;SDS011;2193;47.980;7.660;2023-03-21T01:49:42;8.30;;;5.40;;
4359;SDS011;2193;47.980;7.660;2023-03-21T01:52:13;7.80;;;5.60;;
4359;SDS011;2193;47.980;7.660;2023-03-21T01:54:40;7.40;;;4.65;;
4359;SDS011;2193;47.980;7.660;2023-03-21T01:57:11;6.55;;;5.25;;
4359;SDS011;2193;47.980;7.660;2023-03-21T01:59:42;6.95;;;4.70;;
4359;SDS011;2193;47.980;7.660;2023-03-21T02:02:10;7.22;;;5.00;;
4359;SDS011;2193;47.980;7.660;2023-03-21T02:04:36;7.22;;;4.90;;
4359;SDS011;2193;47.980;7.660;2023-03-21T02:09:31;5.30;;;4.80;;
4359;SDS011;2193;47.980;7.660;2023-03-21T02:11:57;5.93;;;4.75;;
4359;SDS011;2193;47.980;7.660;2023-03-21T02:14:22;12.90;;;5.80;;
4359;SDS011;2193;47.980;7.660;2023-03-21T02:16:53;5.70;;;5.17;;
4359;SDS011;2193;47.980;7.660;2023-03-21T02:24:55;6.60;;;5.25;;
4359;SDS011;2193;47.980;7.660;2023-03-21T02:27:24;6.63;;;5.00;;
4359;SDS011;2193;47.980;7.660;2023-03-21T02:41:02;8.30;;;5.95;;
4359;SDS011;2193;47.980;7.660;2023-03-21T02:43:30;7.95;;;5.53;;
4359;SDS011;2193;47.980;7.660;2023-03-21T02:46:00;7.10;;;5.00;;
4359;SDS011;2193;47.980;7.660;2023-03-21T02:48:30;7.10;;;5.82;;
4359;SDS011;2193;47.980;7.660;2023-03-21T02:50:57;8.70;;;6.05;;
4359;SDS011;2193;47.980;7.660;2023-03-21T02:53:24;8.77;;;5.80;;
4359;SDS011;2193;47.980;7.660;2023-03-21T02:55:51;12.85;;;5.97;;
4359;SDS011;2193;47.980;7.660;2023-03-21T02:58:20;9.13;;;6.60;;
4359;SDS011;2193;47.980;7.660;2023-03-21T03:00:46;11.13;;;6.72;;
4359;SDS011;2193;47.980;7.660;2023-03-21T03:03:13;10.40;;;7.28;;
4359;SDS011;2193;47.980;7.660;2023-03-21T03:05:43;8.95;;;6.80;;
4359;SDS011;2193;47.980;7.660;2023-03-21T03:18:52;12.07;;;5.88;;
4359;SDS011;2193;47.980;7.660;2023-03-21T03:24:13;7.90;;;5.95;;
4359;SDS011;2193;47.980;7.660;2023-03-21T03:29:36;9.65;;;6.50;;
4359;SDS011;2193;47.980;7.660;2023-03-21T03:32:04;9.93;;;6.97;;
4359;SDS011;2193;47.980;7.660;2023-03-21T03:34:32;7.85;;;5.93;;
4359;SDS011;2193;47.980;7.660;2023-03-21T03:36:58;8.55;;;5.88;;
4359;SDS011;2193;47.980;7.660;2023-03-21T03:39:29;10.13;;;6.63;;
4359;SDS011;2193;47.980;7.660;2023-03-21T03:42:01;10.68;;;7.45;;
4359;SDS011;2193;47.980;7.660;2023-03-21T03:44:27;9.90;;;6.90;;
4359;SDS011;2193;47.980;7.660;2023-03-21T03:47:04;9.67;;;6.80;;
4359;SDS011;2193;47.980;7.660;2023-03-21T03:49:35;8.52;;;6.50;;
4359;SDS011;2193;47.980;7.660;2023-03-21T03:52:09;12.15;;;7.90;;
4359;SDS011;2193;47.980;7.660;2023-03-21T03:54:36;11.45;;;7.50;;
4359;SDS011;2193;47.980;7.660;2023-03-21T03:57:02;10.77;;;8.32;;
4359;SDS011;2193;47.980;7.660;2023-03-21T03:59:28;13.97;;;8.23;;
4359;SDS011;2193;47.980;7.660;2023-03-21T04:01:53;9.43;;;7.27;;
4359;SDS011;2193;47.980;7.660;2023-03-21T04:04:19;12.83;;;7.97;;
4359;SDS011;2193;47.980;7.660;2023-03-21T04:06:46;9.95;;;7.05;;
4359;SDS011;2193;47.980;7.660;2023-03-21T04:09:15;8.50;;;6.60;;
4359;SDS011;2193;47.980;7.660;2023-03-21T04:11:40;8.17;;;6.70;;
4359;SDS011;2193;47.980;7.660;2023-03-21T04:14:05;8.80;;;5.93;;
4359;SDS011;2193;47.980;7.660;2023-03-21T04:16:31;8.33;;;6.17;;
4359;SDS011;2193;47.980;7.660;2023-03-21T04:18:56;10.30;;;6.67;;
4359;SDS011;2193;47.980;7.660;2023-03-21T04:21:21;10.40;;;6.90;;
4359;SDS011;2193;47.980;7.660;2023-03-21T04:23:46;8.53;;;6.20;;
4359;SDS011;2193;47.980;7.660;2023-03-21T04:26:12;10.87;;;6.63;;
4359;SDS011;2193;47.980;7.660;2023-03-21T04:28:37;7.90;;;5.97;;
4359;SDS011;2193;47.980;7.660;2023-03-21T04:31:04;6.40;;;5.25;;
4359;SDS011;2193;47.980;7.660;2023-03-21T04:33:30;8.90;;;5.70;;
4359;SDS011;2193;47.980;7.660;2023-03-21T04:35:55;9.73;;;5.70;;
4359;SDS011;2193;47.980;7.660;2023-03-21T04:38:23;7.75;;;5.55;;
4359;SDS011;2193;47.980;7.660;2023-03-21T04:40:48;8.13;;;5.83;;
4359;SDS011;2193;47.980;7.660;2023-03-21T04:43:14;10.53;;;5.97;;
4359;SDS011;2193;47.980;7.660;2023-03-21T04:45:39;7.40;;;5.53;;
4359;SDS011;2193;47.980;7.660;2023-03-21T04:48:04;9.53;;;5.67;;
4359;SDS011;2193;47.980;7.660;2023-03-21T04:50:30;7.50;;;5.43;;
4359;SDS011;2193;47.980;7.660;2023-03-21T04:52:56;10.88;;;6.05;;
4359;SDS011;2193;47.980;7.660;2023-03-21T04:55:21;8.80;;;5.93;;
4359;SDS011;2193;47.980;7.660;2023-03-21T04:57:48;8.95;;;6.40;;
4359;SDS011;2193;47.980;7.660;2023-03-21T05:00:14;7.77;;;6.10;;
4359;SDS011;2193;47.980;7.660;2023-03-21T05:02:39;8.53;;;5.77;;
4359;SDS011;2193;47.980;7.660;2023-03-21T05:05:05;9.07;;;6.80;;
4359;SDS011;2193;47.980;7.660;2023-03-21T05:07:31;10.10;;;6.20;;
4359;SDS011;2193;47.980;7.660;2023-03-21T05:09:56;11.23;;;6.33;;
4359;SDS011;2193;47.980;7.660;2023-03-21T05:12:22;12.50;;;7.43;;
4359;SDS011;2193;47.980;7.660;2023-03-21T05:14:47;11.50;;;6.40;;
4359;SDS011;2193;47.980;7.660;2023-03-21T05:17:12;10.27;;;7.43;;
4359;SDS011;2193;47.980;7.660;2023-03-21T05:19:47;15.98;;;10.55;;
4359;SDS011;2193;47.980;7.660;2023-03-21T05:22:15;9.30;;;6.40;;
4359;SDS011;2193;47.980;7.660;2023-03-21T05:24:43;7.65;;;5.78;;
4359;SDS011;2193;47.980;7.660;2023-03-21T05:27:14;9.57;;;6.68;;
4359;SDS011;2193;47.980;7.660;2023-03-21T05:29:50;10.98;;;5.80;;
4359;SDS011;2193;47.980;7.660;2023-03-21T05:32:15;9.47;;;5.90;;
4359;SDS011;2193;47.980;7.660;2023-03-21T05:34:40;15.23;;;9.67;;
4359;SDS011;2193;47.980;7.660;2023-03-21T05:37:05;16.43;;;10.00;;
4359;SDS011;2193;47.980;7.660;2023-03-21T05:39:30;14.40;;;8.73;;
4359;SDS011;2193;47.980;7.660;2023-03-21T05:41:55;16.77;;;9.93;;
4359;SDS011;2193;47.980;7.660;2023-03-21T05:44:21;18.77;;;11.20;;
4359;SDS011;2193;47.980;7.660;2023-03-21T05:46:46;15.37;;;8.77;;
4359;SDS011;2193;47.980;7.660;2023-03-21T05:49:11;8.87;;;6.10;;
4359;SDS011;2193;47.980;7.660;2023-03-21T05:51:36;9.93;;;6.27;;
4359;SDS011;2193;47.980;7.660;2023-03-21T05:54:02;8.27;;;5.03;;
4359;SDS011;2193;47.980;7.660;2023-03-21T05:56:27;5.97;;;5.20;;
4359;SDS011;2193;47.980;7.660;2023-03-21T05:58:52;5.83;;;5.10;;
4359;SDS011;2193;47.980;7.660;2023-03-21T06:01:17;8.13;;;5.33;;
4359;SDS011;2193;47.980;7.660;2023-03-21T06:03:43;7.60;;;5.30;;
4359;SDS011;2193;47.980;7.660;2023-03-21T06:06:08;7.07;;;5.37;;
4359;SDS011;2193;47.980;7.660;2023-03-21T06:08:33;6.43;;;4.30;;
4359;SDS011;2193;47.980;7.660;2023-03-21T06:10:59;5.33;;;4.67;;
4359;SDS011;2193;47.980;7.660;2023-03-21T06:13:24;6.37;;;4.63;;
4359;SDS011;2193;47.980;7.660;2023-03-21T06:15:49;6.50;;;5.20;;
4359;SDS011;2193;47.980;7.660;2023-03-21T06:18:15;9.90;;;5.40;;
4359;SDS011;2193;47.980;7.660;2023-03-21T06:20:40;7.50;;;5.60;;
4359;SDS011;2193;47.980;7.660;2023-03-21T06:23:05;6.30;;;4.97;;
4359;SDS011;2193;47.980;7.660;2023-03-21T06:25:30;7.53;;;4.90;;
4359;SDS011;2193;47.980;7.660;2023-03-21T06:27:55;6.43;;;5.10;;
4359;SDS011;2193;47.980;7.660;2023-03-21T06:30:21;6.63;;;5.27;;
4359;SDS011;2193;47.980;7.660;2023-03-21T06:32:46;6.80;;;5.40;;
4359;SDS011;2193;47.980;7.660;2023-03-21T06:35:11;7.70;;;6.37;;
4359;SDS011;2193;47.980;7.660;2023-03-21T06:37:36;12.90;;;8.90;;
4359;SDS011;2193;47.980;7.660;2023-03-21T06:40:02;11.77;;;8.90;;
4359;SDS011;2193;47.980;7.660;2023-03-21T06:42:29;10.40;;;7.15;;
4359;SDS011;2193;47.980;7.660;2023-03-21T06:44:54;7.17;;;6.20;;
4359;SDS011;2193;47.980;7.660;2023-03-21T06:47:19;9.17;;;6.93;;
4359;SDS011;2193;47.980;7.660;2023-03-21T06:49:45;11.73;;;6.93;;
4359;SDS011;2193;47.980;7.660;2023-03-21T06:52:10;9.57;;;7.17;;
4359;SDS011;2193;47.980;7.660;2023-03-21T06:54:35;12.03;;;7.97;;
4359;SDS011;2193;47.980;7.660;2023-03-21T06:57:01;11.23;;;7.30;;
4359;SDS011;2193;47.980;7.660;2023-03-21T06:59:26;10.73;;;7.37;;
4359;SDS011;2193;47.980;7.660;2023-03-21T07:01:51;11.17;;;6.50;;
4359;SDS011;2193;47.980;7.660;2023-03-21T07:04:17;9.50;;;6.97;;
4359;SDS011;2193;47.980;7.660;2023-03-21T07:06:42;11.80;;;6.30;;
4359;SDS011;2193;47.980;7.660;2023-03-21T07:09:07;8.97;;;6.87;;
4359;SDS011;2193;47.980;7.660;2023-03-21T07:11:34;9.70;;;6.63;;
4359;SDS011;2193;47.980;7.660;2023-03-21T07:13:59;11.27;;;7.18;;
4359;SDS011;2193;47.980;7.660;2023-03-21T07:16:24;11.40;;;6.90;;
4359;SDS011;2193;47.980;7.660;2023-03-21T07:18:50;10.77;;;6.70;;
4359;SDS011;2193;47.980;7.660;2023-03-21T07:21:15;8.93;;;5.50;;
4359;SDS011;2193;47.980;7.660;2023-03-21T07:23:41;8.13;;;5.63;;
4359;SDS011;2193;47.980;7.660;2023-03-21T07:26:06;8.80;;;5.50;;
4359;SDS011;2193;47.980;7.660;2023-03-21T07:28:31;8.50;;;6.30;;
4359;SDS011;2193;47.980;7.660;2023-03-21T07:30:58;11.10;;;6.27;;
4359;SDS011;2193;47.980;7.660;2023-03-21T07:33:24;13.47;;;5.77;;
4359;SDS011;2193;47.980;7.660;2023-03-21T07:35:49;9.10;;;5.73;;
4359;SDS011;2193;47.980;7.660;2023-03-21T07:38:15;9.20;;;6.17;;
4359;SDS011;2193;47.980;7.660;2023-03-21T07:40:41;11.63;;;6.27;;
4359;SDS011;2193;47.980;7.660;2023-03-21T07:43:07;9.87;;;6.23;;
4359;SDS011;2193;47.980;7.660;2023-03-21T07:45:32;14.10;;;7.17;;
4359;SDS011;2193;47.980;7.660;2023-03-21T07:47:57;10.10;;;6.83;;
4359;SDS011;2193;47.980;7.660;2023-03-21T07:50:22;12.40;;;5.83;;
4359;SDS011;2193;47.980;7.660;2023-03-21T07:52:48;18.20;;;7.40;;
4359;SDS011;2193;47.980;7.660;2023-03-21T07:55:13;12.50;;;8.23;;
4359;SDS011;2193;47.980;7.660;2023-03-21T07:57:38;23.20;;;10.60;;
4359;SDS011;2193;47.980;7.660;2023-03-21T08:00:04;20.37;;;10.50;;
4359;SDS011;2193;47.980;7.660;2023-03-21T08:02:30;24.20;;;9.80;;
4359;SDS011;2193;47.980;7.660;2023-03-21T08:04:56;16.97;;;8.60;;
4359;SDS011;2193;47.980;7.660;2023-03-21T08:07:21;19.27;;;8.97;;
4359;SDS011;2193;47.980;7.660;2023-03-21T08:09:46;17.83;;;9.33;;
4359;SDS011;2193;47.980;7.660;2023-03-21T08:12:11;16.20;;;8.30;;
4359;SDS011;2193;47.980;7.660;2023-03-21T08:14:36;18.97;;;7.70;;
4359;SDS011;2193;47.980;7.660;2023-03-21T08:17:02;10.00;;;7.20;;
4359;SDS011;2193;47.980;7.660;2023-03-21T08:19:27;8.27;;;6.40;;
4359;SDS011;2193;47.980;7.660;2023-03-21T08:21:53;7.50;;;6.10;;
4359;SDS011;2193;47.980;7.660;2023-03-21T08:24:18;12.20;;;6.10;;
4359;SDS011;2193;47.980;7.660;2023-03-21T08:26:43;12.40;;;6.27;;
4359;SDS011;2193;47.980;7.660;2023-03-21T08:29:10;13.63;;;6.43;;
4359;SDS011;2193;47.980;7.660;2023-03-21T08:31:35;10.17;;;5.97;;
4359;SDS011;2193;47.980;7.660;2023-03-21T08:34:00;10.77;;;6.40;;
4359;SDS011;2193;47.980;7.660;2023-03-21T08:36:26;10.70;;;6.50;;
4359;SDS011;2193;47.980;7.660;2023-03-21T08:38:51;12.13;;;6.27;;
4359;SDS011;2193;47.980;7.660;2023-03-21T08:41:21;10.80;;;6.20;;
4359;SDS011;2193;47.980;7.660;2023-03-21T08:43:48;13.33;;;6.60;;
4359;SDS011;2193;47.980;7.660;2023-03-21T08:46:13;11.47;;;6.47;;
4359;SDS011;2193;47.980;7.660;2023-03-21T08:48:38;10.87;;;6.10;;
4359;SDS011;2193;47.980;7.660;2023-03-21T08:51:04;9.53;;;6.63;;
4359;SDS011;2193;47.980;7.660;2023-03-21T08:53:30;8.90;;;5.50;;
4359;SDS011;2193;47.980;7.660;2023-03-21T08:55:55;10.50;;;6.20;;
4359;SDS011;2193;47.980;7.660;2023-03-21T08:58:20;10.47;;;6.10;;
4359;SDS011;2193;47.980;7.660;2023-03-21T09:00:46;8.60;;;5.60;;
4359;SDS011;2193;47.980;7.660;2023-03-21T09:03:11;9.40;;;6.13;;
4359;SDS011;2193;47.980;7.660;2023-03-21T09:05:36;9.00;;;5.93;;
4359;SDS011;2193;47.980;7.660;2023-03-21T09:08:01;8.03;;;6.03;;
4359;SDS011;2193;47.980;7.660;2023-03-21T09:10:28;8.73;;;6.50;;
4359;SDS011;2193;47.980;7.660;2023-03-21T09:12:53;11.00;;;6.97;;
4359;SDS011;2193;47.980;7.660;2023-03-21T09:15:20;14.60;;;6.87;;
4359;SDS011;2193;47.980;7.660;2023-03-21T09:17:45;9.40;;;6.83;;
4359;SDS011;2193;47.980;7.660;2023-03-21T09:20:16;9.63;;;6.60;;
4359;SDS011;2193;47.980;7.660;2023-03-21T09:22:47;9.23;;;6.90;;
4359;SDS011;2193;47.980;7.660;2023-03-21T09:25:16;12.00;;;6.87;;
4359;SDS011;2193;47.980;7.660;2023-03-21T09:27:42;8.90;;;6.43;;
4359;SDS011;2193;47.980;7.660;2023-03-21T09:30:10;10.20;;;7.33;;
4359;SDS011;2193;47.980;7.660;2023-03-21T09:32:35;9.53;;;6.30;;
4359;SDS011;2193;47.980;7.660;2023-03-21T09:35:00;9.07;;;6.27;;
4359;SDS011;2193;47.980;7.660;2023-03-21T09:37:26;11.03;;;7.07;;
4359;SDS011;2193;47.980;7.660;2023-03-21T09:39:51;8.30;;;6.20;;
4359;SDS011;2193;47.980;7.660;2023-03-21T09:49:50;15.10;;;7.17;;
4359;SDS011;2193;47.980;7.660;2023-03-21T09:52:20;9.73;;;7.10;;
4359;SDS011;2193;47.980;7.660;2023-03-21T09:54:46;8.30;;;6.40;;
4359;SDS011;2193;47.980;7.660;2023-03-21T09:57:19;11.63;;;6.37;;
4359;SDS011;2193;47.980;7.660;2023-03-21T09:59:47;7.33;;;5.70;;
4359;SDS011;2193;47.980;7.660;2023-03-21T10:02:36;9.50;;;6.00;;
4359;SDS011;2193;47.980;7.660;2023-03-21T10:05:00;9.90;;;6.43;;
4359;SDS011;2193;47.980;7.660;2023-03-21T10:07:26;7.67;;;5.90;;
4359;SDS011;2193;47.980;7.660;2023-03-21T10:09:54;11.03;;;6.00;;
4359;SDS011;2193;47.980;7.660;2023-03-21T10:12:21;10.37;;;5.70;;
4359;SDS011;2193;47.980;7.660;2023-03-21T10:14:48;9.67;;;6.77;;
4359;SDS011;2193;47.980;7.660;2023-03-21T10:17:34;14.03;;;6.00;;
4359;SDS011;2193;47.980;7.660;2023-03-21T10:22:36;8.00;;;5.77;;
4359;SDS011;2193;47.980;7.660;2023-03-21T10:25:02;6.67;;;5.90;;
4359;SDS011;2193;47.980;7.660;2023-03-21T10:27:28;8.40;;;5.93;;
4359;SDS011;2193;47.980;7.660;2023-03-21T10:29:54;9.33;;;6.57;;
4359;SDS011;2193;47.980;7.660;2023-03-21T10:32:21;8.57;;;6.60;;
4359;SDS011;2193;47.980;7.660;2023-03-21T10:34:48;11.87;;;6.33;;
4359;SDS011;2193;47.980;7.660;2023-03-21T10:37:14;11.83;;;6.40;;
4359;SDS011;2193;47.980;7.660;2023-03-21T10:39:51;11.67;;;6.10;;
4359;SDS011;2193;47.980;7.660;2023-03-21T10:42:21;7.07;;;5.40;;
4359;SDS011;2193;47.980;7.660;2023-03-21T10:44:48;4.97;;;4.23;;
4359;SDS011;2193;47.980;7.660;2023-03-21T10:47:18;6.47;;;4.80;;
4359;SDS011;2193;47.980;7.660;2023-03-21T10:49:43;4.80;;;4.27;;
4359;SDS011;2193;47.980;7.660;2023-03-21T10:52:12;4.83;;;4.10;;
4359;SDS011;2193;47.980;7.660;2023-03-21T10:54:38;7.13;;;4.60;;
4359;SDS011;2193;47.980;7.660;2023-03-21T10:57:24;6.80;;;3.90;;
4359;SDS011;2193;47.980;7.660;2023-03-21T10:59:50;3.83;;;3.43;;
4359;SDS011;2193;47.980;7.660;2023-03-21T11:02:31;3.90;;;3.47;;
4359;SDS011;2193;47.980;7.660;2023-03-21T11:04:57;5.73;;;3.60;;
4359;SDS011;2193;47.980;7.660;2023-03-21T11:07:28;6.73;;;3.83;;
4359;SDS011;2193;47.980;7.660;2023-03-21T11:09:59;5.60;;;4.03;;
4359;SDS011;2193;47.980;7.660;2023-03-21T11:12:29;6.60;;;4.30;;
4359;SDS011;2193;47.980;7.660;2023-03-21T11:14:55;8.00;;;3.77;;
4359;SDS011;2193;47.980;7.660;2023-03-21T11:17:27;7.23;;;4.23;;
4359;SDS011;2193;47.980;7.660;2023-03-21T11:22:22;5.20;;;3.73;;
4359;SDS011;2193;47.980;7.660;2023-03-21T11:24:50;4.63;;;4.07;;
4359;SDS011;2193;47.980;7.660;2023-03-21T11:27:16;6.73;;;4.33;;
4359;SDS011;2193;47.980;7.660;2023-03-21T11:29:50;5.60;;;4.50;;
4359;SDS011;2193;47.980;7.660;2023-03-21T11:32:26;5.90;;;4.27;;
4359;SDS011;2193;47.980;7.660;2023-03-21T11:34:59;6.73;;;4.83;;
4359;SDS011;2193;47.980;7.660;2023-03-21T11:39:53;6.60;;;4.90;;
4359;SDS011;2193;47.980;7.660;2023-03-21T11:42:26;5.80;;;4.13;;
4359;SDS011;2193;47.980;7.660;2023-03-21T11:44:56;5.27;;;3.93;;
4359;SDS011;2193;47.980;7.660;2023-03-21T11:47:22;7.67;;;4.17;;
4359;SDS011;2193;47.980;7.660;2023-03-21T11:49:47;8.60;;;4.43;;
4359;SDS011;2193;47.980;7.660;2023-03-21T11:52:22;7.23;;;4.23;;
4359;SDS011;2193;47.980;7.660;2023-03-21T11:57:57;3.90;;;3.50;;
4359;SDS011;2193;47.980;7.660;2023-03-21T12:00:24;9.77;;;3.10;;
4359;SDS011;2193;47.980;7.660;2023-03-21T12:06:24;4.10;;;2.87;;
4359;SDS011;2193;47.980;7.660;2023-03-21T12:09:40;3.30;;;3.00;;
4359;SDS011;2193;47.980;7.660;2023-03-21T12:14:21;4.40;;;2.40;;
4359;SDS011;2193;47.980;7.660;2023-03-21T12:16:53;4.20;;;2.17;;
4359;SDS011;2193;47.980;7.660;2023-03-21T12:24:56;3.23;;;2.00;;
4359;SDS011;2193;47.980;7.660;2023-03-21T12:30:10;3.10;;;2.27;;
4359;SDS011;2193;47.980;7.660;2023-03-21T12:38:22;2.17;;;1.87;;
4359;SDS011;2193;47.980;7.660;2023-03-21T12:43:40;5.30;;;2.00;;
4359;SDS011;2193;47.980;7.660;2023-03-21T12:46:14;1.90;;;1.60;;
4359;SDS011;2193;47.980;7.660;2023-03-21T12:49:00;2.90;;;1.70;;
4359;SDS011;2193;47.980;7.660;2023-03-21T12:51:36;2.00;;;1.60;;
4359;SDS011;2193;47.980;7.660;2023-03-21T12:56:37;3.70;;;1.80;;
4359;SDS011;2193;47.980;7.660;2023-03-21T13:01:28;4.63;;;2.27;;
4359;SDS011;2193;47.980;7.660;2023-03-21T13:06:28;2.07;;;1.80;;
4359;SDS011;2193;47.980;7.660;2023-03-21T13:08:58;2.73;;;2.20;;
4359;SDS011;2193;47.980;7.660;2023-03-21T13:11:24;2.60;;;2.00;;
4359;SDS011;2193;47.980;7.660;2023-03-21T13:16:36;2.33;;;2.00;;
4359;SDS011;2193;47.980;7.660;2023-03-21T13:26:44;2.17;;;1.97;;
4359;SDS011;2193;47.980;7.660;2023-03-21T13:29:23;7.33;;;2.03;;
4359;SDS011;2193;47.980;7.660;2023-03-21T13:31:49;1.87;;;1.70;;
4359;SDS011;2193;47.980;7.660;2023-03-21T13:34:15;3.43;;;1.53;;
4359;SDS011;2193;47.980;7.660;2023-03-21T13:36:43;2.10;;;1.73;;
4359;SDS011;2193;47.980;7.660;2023-03-21T13:39:11;5.13;;;1.93;;
4359;SDS011;2193;47.980;7.660;2023-03-21T13:41:41;2.20;;;1.47;;
4359;SDS011;2193;47.980;7.660;2023-03-21T13:46:42;1.70;;;1.57;;
4359;SDS011;2193;47.980;7.660;2023-03-21T13:54:02;3.33;;;1.50;;
4359;SDS011;2193;47.980;7.660;2023-03-21T13:56:28;2.20;;;1.60;;
4359;SDS011;2193;47.980;7.660;2023-03-21T13:58:58;1.80;;;1.70;;
4359;SDS011;2193;47.980;7.660;2023-03-21T14:03:58;2.13;;;1.50;;
4359;SDS011;2193;47.980;7.660;2023-03-21T14:06:24;1.63;;;1.43;;
4359;SDS011;2193;47.980;7.660;2023-03-21T14:08:55;1.90;;;1.30;;
4359;SDS011;2193;47.980;7.660;2023-03-21T14:11:21;1.67;;;1.57;;
4359;SDS011;2193;47.980;7.660;2023-03-21T14:13:47;2.20;;;1.73;;
4359;SDS011;2193;47.980;7.660;2023-03-21T14:16:14;2.13;;;1.80;;
4359;SDS011;2193;47.980;7.660;2023-03-21T14:18:47;1.50;;;1.40;;
4359;SDS011;2193;47.980;7.660;2023-03-21T14:21:17;2.30;;;1.43;;
4359;SDS011;2193;47.980;7.660;2023-03-21T14:23:44;1.70;;;1.40;;
4359;SDS011;2193;47.980;7.660;2023-03-21T14:26:10;2.23;;;1.30;;
4359;SDS011;2193;47.980;7.660;2023-03-21T14:28:35;2.60;;;1.63;;
4359;SDS011;2193;47.980;7.660;2023-03-21T14:31:01;4.70;;;1.80;;
4359;SDS011;2193;47.980;7.660;2023-03-21T14:33:31;3.27;;;1.50;;
4359;SDS011;2193;47.980;7.660;2023-03-21T14:35:57;2.60;;;1.40;;
4359;SDS011;2193;47.980;7.660;2023-03-21T14:38:24;1.60;;;1.30;;
4359;SDS011;2193;47.980;7.660;2023-03-21T14:40:50;2.43;;;1.60;;
4359;SDS011;2193;47.980;7.660;2023-03-21T14:43:20;3.27;;;1.37;;
4359;SDS011;2193;47.980;7.660;2023-03-21T14:45:46;1.37;;;1.27;;
4359;SDS011;2193;47.980;7.660;2023-03-21T14:48:13;1.67;;;1.40;;
4359;SDS011;2193;47.980;7.660;2023-03-21T14:50:39;2.07;;;1.03;;
4359;SDS011;2193;47.980;7.660;2023-03-21T14:53:06;2.90;;;1.17;;
4359;SDS011;2193;47.980;7.660;2023-03-21T14:55:32;3.70;;;1.17;;
4359;SDS011;2193;47.980;7.660;2023-03-21T14:57:58;1.57;;;1.17;;
4359;SDS011;2193;47.980;7.660;2023-03-21T15:00:24;2.47;;;1.33;;
4359;SDS011;2193;47.980;7.660;2023-03-21T15:02:50;3.87;;;1.33;;
4359;SDS011;2193;47.980;7.660;2023-03-21T15:05:22;6.07;;;1.50;;
4359;SDS011;2193;47.980;7.660;2023-03-21T15:07:52;1.43;;;1.27;;
4359;SDS011;2193;47.980;7.660;2023-03-21T15:10:19;3.93;;;1.57;;
4359;SDS011;2193;47.980;7.660;2023-03-21T15:15:16;3.73;;;1.57;;
4359;SDS011;2193;47.980;7.660;2023-03-21T15:17:42;5.57;;;1.80;;
4359;SDS011;2193;47.980;7.660;2023-03-21T15:20:09;1.77;;;1.40;;
4359;SDS011;2193;47.980;7.660;2023-03-21T15:22:38;4.53;;;1.73;;
4359;SDS011;2193;47.980;7.660;2023-03-21T15:25:05;1.43;;;1.20;;
4359;SDS011;2193;47.980;7.660;2023-03-21T15:27:33;3.77;;;1.50;;
4359;SDS011;2193;47.980;7.660;2023-03-21T15:29:59;4.53;;;1.30;;
4359;SDS011;2193;47.980;7.660;2023-03-21T15:32:25;1.37;;;1.27;;
4359;SDS011;2193;47.980;7.660;2023-03-21T15:34:52;1.23;;;1.13;;
4359;SDS011;2193;47.980;7.660;2023-03-21T15:37:23;3.80;;;1.20;;
4359;SDS011;2193;47.980;7.660;2023-03-21T15:39:49;1.73;;;1.30;;
4359;SDS011;2193;47.980;7.660;2023-03-21T15:42:23;2.97;;;1.50;;
4359;SDS011;2193;47.980;7.660;2023-03-21T15:44:50;2.00;;;1.20;;
4359;SDS011;2193;47.980;7.660;2023-03-21T15:47:34;6.03;;;1.40;;
4359;SDS011;2193;47.980;7.660;2023-03-21T15:49:59;4.63;;;1.10;;
4359;SDS011;2193;47.980;7.660;2023-03-21T15:52:30;7.50;;;1.30;;
4359;SDS011;2193;47.980;7.660;2023-03-21T15:54:56;2.10;;;1.10;;
4359;SDS011;2193;47.980;7.660;2023-03-21T15:57:27;1.80;;;1.20;;
4359;SDS011;2193;47.980;7.660;2023-03-21T16:02:45;2.43;;;1.20;;
4359;SDS011;2193;47.980;7.660;2023-03-21T16:05:28;1.73;;;1.20;;
4359;SDS011;2193;47.980;7.660;2023-03-21T16:08:36;1.63;;;1.30;;
4359;SDS011;2193;47.980;7.660;2023-03-21T16:10:43;2.40;;;1.53;;
4359;SDS011;2193;47.980;7.660;2023-03-21T16:13:10;8.20;;;1.23;;
4359;SDS011;2193;47.980;7.660;2023-03-21T16:15:36;1.17;;;1.07;;
4359;SDS011;2193;47.980;7.660;2023-03-21T16:18:02;3.13;;;1.20;;
4359;SDS011;2193;47.980;7.660;2023-03-21T16:20:38;2.10;;;1.10;;
4359;SDS011;2193;47.980;7.660;2023-03-21T16:23:04;2.57;;;1.40;;
4359;SDS011;2193;47.980;7.660;2023-03-21T16:25:30;1.93;;;1.10;;
4359;SDS011;2193;47.980;7.660;2023-03-21T16:27:56;1.40;;;1.20;;
4359;SDS011;2193;47.980;7.660;2023-03-21T16:30:21;3.17;;;1.30;;
4359;SDS011;2193;47.980;7.660;2023-03-21T16:32:47;2.00;;;1.10;;
4359;SDS011;2193;47.980;7.660;2023-03-21T16:35:13;2.13;;;1.57;;
4359;SDS011;2193;47.980;7.660;2023-03-21T16:37:39;1.87;;;1.40;;
4359;SDS011;2193;47.980;7.660;2023-03-21T16:40:21;2.17;;;1.20;;
4359;SDS011;2193;47.980;7.660;2023-03-21T16:42:47;2.17;;;1.20;;
4359;SDS011;2193;47.980;7.660;2023-03-21T16:45:13;5.43;;;1.20;;
4359;SDS011;2193;47.980;7.660;2023-03-21T16:47:38;1.47;;;1.17;;
4359;SDS011;2193;47.980;7.660;2023-03-21T16:52:48;3.50;;;1.37;;
4359;SDS011;2193;47.980;7.660;2023-03-21T16:55:13;2.80;;;1.40;;
4359;SDS011;2193;47.980;7.660;2023-03-21T16:57:38;1.43;;;1.30;;
4359;SDS011;2193;47.980;7.660;2023-03-21T17:00:04;2.90;;;1.20;;
4359;SDS011;2193;47.980;7.660;2023-03-21T17:02:37;3.03;;;1.10;;
4359;SDS011;2193;47.980;7.660;2023-03-21T17:05:02;4.10;;;1.33;;
4359;SDS011;2193;47.980;7.660;2023-03-21T17:07:28;1.47;;;1.37;;